Time;durP1;ratioP1;P1;durP2;ratioP2;P2;SDS_P1;SDS_P2;PMS_P1;PMS_P2;Temp;Humidity;BMP_temperature;BMP_pressure;BME280_temperature;BME280_humidity;BME280_pressure;Samples;Min_cycle;Max_cycle;Signal;HPM_P1;HPM_P2
2022/05/26 00:00:14;;;;;;;54.33;12.73;;;15.00;99.90;;;;;;5021580;28;20223;-82
2022/05/26 00:02:41;;;;;;;38.80;11.33;;;15.00;99.90;;;;;;5010037;28;20203;-79
2022/05/26 00:05:08;;;;;;;38.30;10.13;;;15.00;99.90;;;;;;5010711;28;20317;-80
2022/05/26 00:07:37;;;;;;;48.70;10.47;;;14.90;99.90;;;;;;5009275;28;20605;-81
2022/05/26 00:10:04;;;;;;;39.63;9.53;;;14.90;99.90;;;;;;5009293;28;20234;-81
2022/05/26 00:12:32;;;;;;;43.20;10.07;;;14.80;99.90;;;;;;5009832;28;20201;-79
2022/05/26 00:14:58;;;;;;;43.77;10.57;;;14.80;99.90;;;;;;5009692;28;20217;-82
2022/05/26 00:17:25;;;;;;;38.23;9.87;;;14.80;99.90;;;;;;5010682;28;20207;-82
2022/05/26 00:19:52;;;;;;;41.80;10.40;;;14.80;99.90;;;;;;5009305;28;20673;-80
2022/05/26 00:22:20;;;;;;;33.80;9.40;;;14.70;99.90;;;;;;5009684;28;20222;-80
2022/05/26 00:24:48;;;;;;;47.70;13.07;;;14.70;99.90;;;;;;5009712;28;20238;-81
2022/05/26 00:27:15;;;;;;;44.60;10.88;;;14.70;99.90;;;;;;5008477;28;20216;-80
2022/05/26 00:29:42;;;;;;;43.75;11.00;;;14.60;99.90;;;;;;5009844;28;20222;-80
2022/05/26 00:32:09;;;;;;;41.80;12.15;;;14.60;99.90;;;;;;5008746;28;20831;-80
2022/05/26 00:34:36;;;;;;;46.63;12.03;;;14.60;99.90;;;;;;5010697;28;20206;-81
2022/05/26 00:37:06;;;;;;;42.23;12.33;;;14.60;99.90;;;;;;5029689;28;20202;-79
2022/05/26 00:39:33;;;;;;;46.57;13.27;;;14.60;99.90;;;;;;5029638;28;20225;-80
2022/05/26 00:42:04;;;;;;;39.77;12.43;;;14.60;99.90;;;;;;5027884;28;20194;-80
2022/05/26 00:44:32;;;;;;;46.20;13.10;;;14.70;99.90;;;;;;5028911;28;20801;-80
2022/05/26 00:47:04;;;;;;;34.80;11.83;;;14.70;99.90;;;;;;5029009;28;20209;-80
2022/05/26 00:49:39;;;;;;;52.33;12.83;;;14.70;99.90;;;;;;5022811;28;20203;-81
2022/05/26 00:52:07;;;;;;;34.97;10.90;;;14.70;99.90;;;;;;5008408;28;20203;-80
2022/05/26 00:54:34;;;;;;;31.43;10.13;;;14.70;99.90;;;;;;5008118;28;20214;-79
2022/05/26 00:57:07;;;;;;;33.70;9.70;;;14.80;99.90;;;;;;5008229;28;20202;-81
2022/05/26 00:59:41;;;;;;;36.17;9.93;;;14.80;99.90;;;;;;5008232;28;20646;-79
2022/05/26 01:02:09;;;;;;;30.50;8.83;;;14.80;99.90;;;;;;5008051;28;20195;-80
2022/05/26 01:04:41;;;;;;;38.10;11.60;;;14.80;99.90;;;;;;5007842;28;20254;-81
2022/05/26 01:07:12;;;;;;;31.07;10.07;;;14.80;99.90;;;;;;5008196;28;20204;-81
2022/05/26 01:09:39;;;;;;;34.53;9.50;;;14.80;99.90;;;;;;5006284;28;20595;-80
2022/05/26 01:12:09;;;;;;;30.67;8.20;;;14.80;99.90;;;;;;5007489;28;20206;-82
2022/05/26 01:14:40;;;;;;;39.13;9.83;;;14.80;99.90;;;;;;5007529;28;20531;-79
2022/05/26 01:17:17;;;;;;;36.88;10.02;;;14.70;99.90;;;;;;5007388;28;20207;-82
2022/05/26 01:20:17;;;;;;;34.87;9.80;;;14.70;99.90;;;;;;5007566;28;20234;-80
2022/05/26 01:23:27;;;;;;;28.93;9.30;;;14.70;99.90;;;;;;5006896;28;20234;-79
2022/05/26 01:26:29;;;;;;;31.00;7.93;;;14.70;99.90;;;;;;5009313;28;20582;-78
2022/05/26 01:29:21;;;;;;;26.17;7.27;;;14.70;99.90;;;;;;5004613;28;20206;-80
2022/05/26 01:31:53;;;;;;;28.93;7.27;;;14.60;99.90;;;;;;5024930;28;20195;-79
2022/05/26 01:34:26;;;;;;;23.87;5.50;;;14.70;99.90;;;;;;5007680;28;20191;-78
2022/05/26 01:37:01;;;;;;;28.85;5.75;;;14.70;99.90;;;;;;5007162;28;20196;-80
2022/05/26 01:39:38;;;;;;;23.37;4.80;;;14.70;99.90;;;;;;5019273;28;20214;-81
2022/05/26 01:42:20;;;;;;;20.23;5.37;;;14.80;99.90;;;;;;5027020;28;20209;-82
2022/05/26 01:44:54;;;;;;;21.47;4.97;;;14.80;99.90;;;;;;5026933;28;20209;-80
2022/05/26 01:47:36;;;;;;;21.40;4.47;;;14.90;99.90;;;;;;5015870;28;20626;-80
2022/05/26 01:50:07;;;;;;;25.33;4.77;;;15.00;99.90;;;;;;5007495;28;20194;-79
2022/05/26 01:52:41;;;;;;;18.57;5.53;;;15.00;99.90;;;;;;5007110;28;20199;-81
2022/05/26 01:55:15;;;;;;;19.07;4.23;;;15.00;99.90;;;;;;5007151;28;20290;-81
2022/05/26 01:57:47;;;;;;;13.37;3.80;;;14.90;99.90;;;;;;5021711;28;20855;-80
2022/05/26 02:00:17;;;;;;;13.70;3.43;;;15.00;99.90;;;;;;5026674;28;20218;-79
2022/05/26 02:02:56;;;;;;;10.97;3.20;;;14.90;99.90;;;;;;5026425;28;20293;-80
2022/05/26 02:05:26;;;;;;;11.90;3.03;;;14.90;99.90;;;;;;5023373;28;20206;-80
2022/05/26 02:07:58;;;;;;;15.83;3.10;;;14.90;99.90;;;;;;5007363;28;20201;-81
2022/05/26 02:10:29;;;;;;;19.37;3.33;;;14.90;99.90;;;;;;5007374;28;20212;-80
2022/05/26 02:13:01;;;;;;;17.03;3.40;;;14.90;99.90;;;;;;5006233;28;20518;-79
2022/05/26 02:15:33;;;;;;;13.05;3.00;;;14.90;99.90;;;;;;5006908;28;20203;-80
2022/05/26 02:18:05;;;;;;;9.55;2.63;;;14.90;99.90;;;;;;5006906;28;20198;-80
2022/05/26 02:20:39;;;;;;;14.90;3.70;;;14.80;99.90;;;;;;5014630;28;20589;-81
2022/05/26 02:23:13;;;;;;;14.60;3.17;;;14.90;99.90;;;;;;5026252;28;20514;-80
2022/05/26 02:25:40;;;;;;;11.40;3.17;;;14.90;99.90;;;;;;5026260;28;20564;-79
2022/05/26 02:28:07;;;;;;;10.80;2.75;;;14.80;99.90;;;;;;5022484;28;20226;-81
2022/05/26 02:30:37;;;;;;;15.00;3.43;;;14.90;99.90;;;;;;5006103;28;20203;-81
2022/05/26 02:33:09;;;;;;;8.07;3.00;;;14.90;99.90;;;;;;5007086;28;20611;-81
2022/05/26 02:35:39;;;;;;;13.83;3.10;;;14.80;99.90;;;;;;5005577;28;20217;-80
2022/05/26 02:38:10;;;;;;;11.73;3.70;;;14.80;99.90;;;;;;5011618;28;20221;-81
2022/05/26 02:40:37;;;;;;;12.23;3.40;;;14.80;99.90;;;;;;5025695;28;20222;-79
2022/05/26 02:43:10;;;;;;;10.95;2.95;;;14.80;99.90;;;;;;5025723;28;20211;-80
2022/05/26 02:45:52;;;;;;;15.53;3.60;;;14.70;99.90;;;;;;5026035;28;20210;-80
2022/05/26 02:48:34;;;;;;;13.30;3.73;;;14.70;99.90;;;;;;5025447;28;20218;-81
2022/05/26 02:51:07;;;;;;;14.90;2.80;;;14.80;99.90;;;;;;5025521;28;20237;-79
2022/05/26 02:53:41;;;;;;;9.47;2.80;;;14.70;99.90;;;;;;5026040;28;20210;-80
2022/05/26 02:56:34;;;;;;;12.60;3.50;;;14.70;99.90;;;;;;5011347;28;20606;-81
2022/05/26 02:59:11;;;;;;;11.83;2.20;;;14.60;99.90;;;;;;5006805;28;20199;-83
2022/05/26 03:01:43;;;;;;;11.90;2.20;;;14.60;99.90;;;;;;5006299;28;21111;-80
2022/05/26 03:04:17;;;;;;;9.63;2.23;;;14.50;99.90;;;;;;5006747;28;20214;-80
2022/05/26 03:06:49;;;;;;;12.80;3.07;;;14.50;99.90;;;;;;5006545;28;20202;-83
2022/05/26 03:09:17;;;;;;;9.60;2.60;;;14.60;99.90;;;;;;5006120;28;20203;-80
2022/05/26 03:11:46;;;;;;;11.33;2.80;;;14.50;99.90;;;;;;5006633;28;20215;-80
2022/05/26 03:14:13;;;;;;;6.77;3.10;;;14.60;99.90;;;;;;5006654;28;20278;-81
2022/05/26 03:16:40;;;;;;;9.77;2.47;;;14.50;99.90;;;;;;5005934;28;20623;-80
2022/05/26 03:19:07;;;;;;;10.30;2.50;;;14.50;99.90;;;;;;5006404;28;20214;-81
2022/05/26 03:21:36;;;;;;;9.27;2.87;;;14.50;99.90;;;;;;5006573;28;20917;-80
2022/05/26 03:24:02;;;;;;;6.73;2.03;;;14.50;99.90;;;;;;5005723;28;20226;-82
2022/05/26 03:26:29;;;;;;;11.10;2.90;;;14.50;99.90;;;;;;5007203;28;20199;-82
2022/05/26 03:28:57;;;;;;;6.63;2.10;;;14.50;99.90;;;;;;5006772;28;20567;-79
2022/05/26 03:31:24;;;;;;;5.73;2.20;;;14.60;99.90;;;;;;5006312;28;20630;-80
2022/05/26 03:42:18;;;;;;;9.50;2.20;;;14.60;99.90;;;;;;4998816;28;20911;-79
2022/05/26 03:44:45;;;;;;;7.27;2.37;;;14.70;99.90;;;;;;5005571;28;20207;-79
2022/05/26 03:47:13;;;;;;;9.80;2.57;;;14.70;99.90;;;;;;5005753;28;20195;-79
2022/05/26 03:49:40;;;;;;;13.30;2.47;;;14.70;99.90;;;;;;5006438;28;20207;-80
2022/05/26 03:52:08;;;;;;;9.57;2.50;;;14.60;99.90;;;;;;5005205;28;20200;-81
2022/05/26 03:54:35;;;;;;;12.77;3.17;;;14.60;99.90;;;;;;5005208;28;20211;-81
2022/05/26 03:57:03;;;;;;;7.00;2.37;;;14.60;99.90;;;;;;5007018;28;20200;-79
2022/05/26 03:59:31;;;;;;;8.13;2.00;;;14.60;99.90;;;;;;5006597;28;20207;-83
2022/05/26 04:01:57;;;;;;;8.80;2.37;;;14.60;99.90;;;;;;5006593;28;20235;-83
2022/05/26 04:04:24;;;;;;;9.73;2.40;;;14.60;99.90;;;;;;5006627;28;20219;-79
2022/05/26 04:06:51;;;;;;;7.23;2.07;;;14.60;99.90;;;;;;5005226;28;20488;-81
2022/05/26 04:09:19;;;;;;;7.37;2.00;;;14.60;99.90;;;;;;5005980;28;20214;-80
2022/05/26 04:11:46;;;;;;;10.20;2.47;;;14.60;99.90;;;;;;5005773;28;20214;-82
2022/05/26 04:14:13;;;;;;;10.57;2.63;;;14.60;99.90;;;;;;5006293;28;20208;-81
2022/05/26 04:16:40;;;;;;;8.07;2.30;;;14.60;99.90;;;;;;5005890;28;20238;-83
2022/05/26 04:19:07;;;;;;;10.70;2.97;;;14.60;99.90;;;;;;5005674;28;20283;-81
2022/05/26 04:21:35;;;;;;;8.30;2.80;;;14.60;99.90;;;;;;5006727;28;20240;-82
2022/05/26 04:24:01;;;;;;;10.60;2.37;;;14.60;99.90;;;;;;5007537;28;20210;-80
2022/05/26 04:26:30;;;;;;;8.43;2.23;;;14.70;99.90;;;;;;5010326;28;20203;-82
2022/05/26 04:29:13;;;;;;;8.27;2.53;;;14.70;99.90;;;;;;5010669;28;20210;-82
2022/05/26 04:31:41;;;;;;;5.20;2.00;;;14.80;99.90;;;;;;5010540;28;20493;-81
2022/05/26 04:34:08;;;;;;;7.00;2.13;;;14.80;99.90;;;;;;5009624;28;20207;-82
2022/05/26 04:36:34;;;;;;;9.73;2.17;;;14.80;99.90;;;;;;5009686;28;20210;-83
2022/05/26 04:39:01;;;;;;;9.80;2.23;;;14.80;99.90;;;;;;5010822;28;20203;-81
2022/05/26 04:41:29;;;;;;;8.07;2.73;;;14.80;99.90;;;;;;5009324;28;20234;-82
2022/05/26 04:43:56;;;;;;;8.80;2.27;;;14.80;99.90;;;;;;5009878;28;20261;-81
2022/05/26 04:46:23;;;;;;;10.03;2.70;;;14.80;99.90;;;;;;5010555;28;20211;-82
2022/05/26 04:48:50;;;;;;;6.67;2.00;;;14.80;99.90;;;;;;5009307;28;20861;-82
2022/05/26 04:51:17;;;;;;;6.97;2.00;;;14.90;99.90;;;;;;5009660;28;20207;-82
2022/05/26 04:53:44;;;;;;;11.87;2.20;;;14.80;99.90;;;;;;5009013;28;20313;-81
2022/05/26 04:56:11;;;;;;;9.90;2.50;;;14.80;99.90;;;;;;5008921;28;20202;-78
2022/05/26 04:58:39;;;;;;;8.33;2.07;;;14.80;99.90;;;;;;5018421;28;20213;-78
2022/05/26 05:01:12;;;;;;;6.77;2.23;;;14.80;99.90;;;;;;5029984;28;20222;-78
2022/05/26 05:03:39;;;;;;;9.40;2.13;;;14.80;99.90;;;;;;5012342;28;20207;-79
2022/05/26 05:06:06;;;;;;;8.13;2.30;;;14.80;99.90;;;;;;5009860;28;20499;-80
2022/05/26 05:08:33;;;;;;;10.67;2.97;;;14.80;99.90;;;;;;5010759;28;20211;-82
2022/05/26 05:11:00;;;;;;;11.83;2.70;;;15.00;99.90;;;;;;5010206;28;20207;-81
2022/05/26 05:13:27;;;;;;;11.93;2.20;;;15.10;99.90;;;;;;5010915;28;20210;-82
2022/05/26 05:16:01;;;;;;;7.43;2.00;;;15.20;99.90;;;;;;5010160;28;20685;-79
2022/05/26 05:18:29;;;;;;;8.60;2.17;;;15.20;99.90;;;;;;5010105;28;20786;-79
2022/05/26 05:20:58;;;;;;;7.43;2.27;;;15.20;99.90;;;;;;5019916;28;20235;-80
2022/05/26 05:23:26;;;;;;;9.80;2.77;;;15.40;99.90;;;;;;5029511;28;20448;-81
2022/05/26 05:25:54;;;;;;;8.32;1.90;;;15.70;99.90;;;;;;5019944;28;20316;-79
2022/05/26 05:28:26;;;;;;;7.53;1.80;;;16.00;99.90;;;;;;5010987;28;20472;-79
2022/05/26 05:30:58;;;;;;;8.50;2.33;;;16.30;99.90;;;;;;5010692;28;20210;-79
2022/05/26 05:33:30;;;;;;;6.22;1.70;;;16.70;99.90;;;;;;5010119;28;20202;-80
2022/05/26 05:36:02;;;;;;;3.53;1.50;;;17.10;99.90;;;;;;5010066;28;20286;-80
2022/05/26 05:38:29;;;;;;;6.50;2.13;;;17.50;99.90;;;;;;5011371;28;20211;-79
2022/05/26 05:40:56;;;;;;;8.05;1.83;;;17.80;99.90;;;;;;5010942;28;20227;-80
2022/05/26 05:43:23;;;;;;;8.27;2.17;;;18.00;99.90;;;;;;5029670;28;20209;-80
2022/05/26 05:45:50;;;;;;;7.90;1.90;;;18.10;99.90;;;;;;5035079;28;20198;-81
2022/05/26 05:48:20;;;;;;;8.20;2.17;;;18.00;99.90;;;;;;5037975;28;20199;-80
2022/05/26 05:50:47;;;;;;;15.90;2.50;;;17.90;99.90;;;;;;5039943;28;20226;-80
2022/05/26 05:53:15;;;;;;;6.68;2.67;;;17.90;99.90;;;;;;5047502;28;20209;-81
2022/05/26 05:55:41;;;;;;;9.35;2.88;;;18.00;99.90;;;;;;5041338;28;20234;-84
2022/05/26 05:58:09;;;;;;;7.68;2.30;;;18.20;99.90;;;;;;5042267;28;20203;-81
2022/05/26 06:00:36;;;;;;;9.57;2.08;;;18.60;99.90;;;;;;5037844;28;20199;-80
2022/05/26 06:03:03;;;;;;;6.95;1.75;;;18.90;99.90;;;;;;5032075;28;20202;-81
2022/05/26 06:05:32;;;;;;;7.60;2.30;;;19.10;99.90;;;;;;5028662;28;20198;-84
2022/05/26 06:07:59;;;;;;;7.10;2.03;;;19.40;99.90;;;;;;5011901;28;20214;-83
2022/05/26 06:10:26;;;;;;;11.38;2.60;;;19.70;99.90;;;;;;5018740;28;20217;-81
2022/05/26 06:12:53;;;;;;;5.75;1.63;;;20.00;99.90;;;;;;5027845;28;20206;-81
2022/05/26 06:15:20;;;;;;;7.53;2.00;;;20.20;99.90;;;;;;5029325;28;20532;-83
2022/05/26 06:17:47;;;;;;;5.95;1.98;;;20.40;99.90;;;;;;5030025;28;20209;-84
2022/05/26 06:20:15;;;;;;;8.52;2.08;;;20.40;99.90;;;;;;5026016;28;20234;-83
2022/05/26 06:22:45;;;;;;;9.88;2.22;;;20.50;99.90;;;;;;5027749;28;20530;-83
2022/05/26 06:25:13;;;;;;;6.70;2.15;;;20.60;99.90;;;;;;5027864;28;20237;-82
2022/05/26 06:30:30;;;;;;;8.18;2.17;;;20.70;99.90;;;;;;5028671;28;20197;-80
2022/05/26 06:38:33;;;;;;;4.93;1.33;;;20.80;99.90;;;;;;5008372;28;20202;-81
2022/05/26 06:42:05;;;;;;;7.22;1.95;;;20.80;99.90;;;;;;5008140;28;20202;-80
2022/05/26 06:43:49;;;;;;;6.97;1.98;;;20.80;99.90;;;;;;5006525;28;20221;-82
2022/05/26 06:46:16;;;;;;;10.18;2.25;;;20.90;99.90;;;;;;4957496;28;20529;-82
2022/05/26 06:48:44;;;;;;;4.55;1.90;;;20.80;99.90;;;;;;5025241;28;20210;-83
2022/05/26 06:51:11;;;;;;;8.05;2.25;;;20.70;99.90;;;;;;5026319;28;20202;-83
2022/05/26 06:53:43;;;;;;;5.32;1.70;;;20.80;99.90;;;;;;5025580;28;20210;-81
2022/05/26 06:56:10;;;;;;;6.20;2.00;;;21.00;99.90;;;;;;5022725;28;20217;-82
2022/05/26 06:58:37;;;;;;;8.02;1.73;;;21.10;99.90;;;;;;5025157;28;20211;-79
2022/05/26 07:01:04;;;;;;;5.63;2.08;;;21.30;99.90;;;;;;5027383;28;20217;-79
2022/05/26 07:03:30;;;;;;;4.82;1.75;;;21.50;99.90;;;;;;5020995;28;20195;-82
2022/05/26 07:05:57;;;;;;;4.95;2.10;;;21.40;99.90;;;;;;5021187;28;20203;-82
2022/05/26 07:08:24;;;;;;;9.00;2.22;;;21.40;99.90;;;;;;5026382;28;20206;-82
2022/05/26 07:10:54;;;;;;;9.95;2.72;;;21.50;99.90;;;;;;5021873;28;20210;-82
2022/05/26 07:13:23;;;;;;;5.18;2.17;;;21.40;99.90;;;;;;5026918;28;20214;-82
2022/05/26 07:15:51;;;;;;;8.63;2.17;;;21.50;99.90;;;;;;5026540;28;20229;-81
2022/05/26 07:18:18;;;;;;;7.90;2.13;;;21.60;99.90;;;;;;5024636;28;20210;-81
2022/05/26 07:20:45;;;;;;;6.82;2.00;;;21.90;99.90;;;;;;5028380;28;20230;-81
2022/05/26 07:23:11;;;;;;;7.63;2.08;;;22.30;99.90;;;;;;5030297;28;20313;-84
2022/05/26 07:25:40;;;;;;;5.85;2.28;;;22.50;99.90;;;;;;5019432;28;20319;-82
2022/05/26 07:28:09;;;;;;;6.72;2.03;;;22.90;99.90;;;;;;5011388;28;20195;-81
2022/05/26 07:30:35;;;;;;;8.63;2.53;;;23.00;99.90;;;;;;5015955;28;20218;-79
2022/05/26 07:33:02;;;;;;;8.98;3.00;;;23.40;99.90;;;;;;5019253;28;20203;-83
2022/05/26 07:35:29;;;;;;;6.80;2.47;;;23.40;99.90;;;;;;5013677;28;20204;-86
2022/05/26 07:43:27;;;;;;;9.00;2.58;;;23.50;99.90;;;;;;5010867;28;20222;-82
2022/05/26 07:45:54;;;;;;;11.02;2.97;;;23.70;99.90;;;;;;5010219;28;20230;-81
2022/05/26 07:48:21;;;;;;;10.43;2.42;;;23.60;99.90;;;;;;5011419;28;20479;-84
2022/05/26 07:50:48;;;;;;;7.53;2.30;;;23.30;99.90;;;;;;5022242;28;20222;-84
2022/05/26 07:53:15;;;;;;;6.10;2.65;;;23.20;99.90;;;;;;5035279;28;20187;-80
2022/05/26 07:55:42;;;;;;;11.00;2.92;;;23.20;99.90;;;;;;5035346;28;20218;-83
2022/05/26 07:58:09;;;;;;;7.57;2.90;;;23.10;99.90;;;;;;5034763;28;20222;-83
2022/05/26 08:00:38;;;;;;;8.50;2.65;;;23.00;99.90;;;;;;5020430;28;20223;-79
2022/05/26 08:03:05;;;;;;;9.32;2.60;;;22.90;99.90;;;;;;5018893;28;20238;-86
2022/05/26 08:05:32;;;;;;;7.18;2.65;;;22.60;99.90;;;;;;5018577;28;20202;-82
2022/05/26 08:08:00;;;;;;;7.38;3.55;;;22.70;99.90;;;;;;5019336;28;20213;-82
2022/05/26 08:10:26;;;;;;;10.70;3.30;;;22.80;99.90;;;;;;5023386;28;20237;-80
2022/05/26 08:12:53;;;;;;;10.98;3.30;;;23.00;99.90;;;;;;5013580;28;20282;-80
2022/05/26 08:15:22;;;;;;;8.77;3.10;;;22.90;99.90;;;;;;5011106;28;20203;-79
2022/05/26 08:17:50;;;;;;;6.85;2.58;;;22.90;99.90;;;;;;5011006;28;20285;-81
2022/05/26 08:20:17;;;;;;;7.72;2.90;;;22.90;99.90;;;;;;5010309;28;20199;-81
2022/05/26 08:22:44;;;;;;;8.77;3.03;;;23.10;99.90;;;;;;5010020;28;20259;-83
2022/05/26 08:25:11;;;;;;;8.48;2.55;;;23.50;99.90;;;;;;5010491;28;20231;-82
2022/05/26 08:27:37;;;;;;;8.82;2.95;;;23.50;99.90;;;;;;5009617;28;20210;-80
2022/05/26 08:30:07;;;;;;;9.05;3.10;;;23.20;99.90;;;;;;5008699;28;20199;-83
2022/05/26 08:32:33;;;;;;;9.45;2.90;;;23.00;99.90;;;;;;5007795;28;20291;-80
2022/05/26 08:35:04;;;;;;;6.35;2.25;;;23.00;99.90;;;;;;5008455;28;20207;-80
2022/05/26 08:37:31;;;;;;;9.07;2.88;;;23.10;99.90;;;;;;5009268;28;20199;-85
2022/05/26 08:39:58;;;;;;;11.85;2.60;;;23.30;99.90;;;;;;5011971;28;20218;-87
2022/05/26 08:42:31;;;;;;;7.60;2.90;;;23.40;99.90;;;;;;5011840;28;20226;-87
2022/05/26 08:45:00;;;;;;;6.53;2.65;;;23.40;99.90;;;;;;5013048;28;20241;-84
2022/05/26 08:47:31;;;;;;;9.95;3.22;;;23.20;99.90;;;;;;5022580;28;20349;-79
2022/05/26 08:50:06;;;;;;;7.05;2.63;;;23.30;99.90;;;;;;5028308;28;20301;-82
2022/05/26 08:52:36;;;;;;;9.05;3.05;;;22.90;99.90;;;;;;5028047;28;20392;-82
2022/05/26 08:55:09;;;;;;;10.20;2.92;;;22.60;99.90;;;;;;5026104;28;20203;-80
2022/05/26 08:57:41;;;;;;;9.57;3.60;;;22.50;99.90;;;;;;5009582;28;20206;-81
2022/05/26 09:00:11;;;;;;;7.90;2.75;;;22.70;99.90;;;;;;5008665;28;20325;-82
2022/05/26 09:02:38;;;;;;;8.07;2.78;;;22.50;99.90;;;;;;5007587;28;20281;-79
2022/05/26 09:05:12;;;;;;;10.43;3.33;;;22.40;99.90;;;;;;5007896;28;20210;-81
2022/05/26 09:13:15;;;;;;;8.50;3.08;;;22.50;99.90;;;;;;5007619;28;20206;-79
2022/05/26 09:15:42;;;;;;;11.07;3.60;;;22.30;99.90;;;;;;5007163;28;20207;-79
2022/05/26 09:18:14;;;;;;;10.10;3.25;;;22.40;99.90;;;;;;5008123;28;20421;-81
2022/05/26 09:20:44;;;;;;;13.07;3.92;;;22.50;99.90;;;;;;5008284;28;20670;-79
2022/05/26 09:23:14;;;;;;;9.00;3.13;;;22.30;99.90;;;;;;5007114;28;20216;-80
2022/05/26 09:25:47;;;;;;;8.43;2.72;;;22.20;99.90;;;;;;5007974;28;20239;-80
2022/05/26 09:28:26;;;;;;;11.57;3.10;;;22.00;99.90;;;;;;5007360;28;20254;-79
2022/05/26 09:30:53;;;;;;;9.95;3.67;;;21.90;99.90;;;;;;5007916;28;20664;-78
2022/05/26 09:33:28;;;;;;;11.00;3.90;;;22.10;99.90;;;;;;5006442;28;20203;-80
2022/05/26 09:36:15;;;;;;;13.23;3.75;;;22.10;99.90;;;;;;5010448;28;20183;-80
2022/05/26 09:38:43;;;;;;;11.15;4.35;;;22.00;99.90;;;;;;5026569;28;20581;-79
2022/05/26 09:41:16;;;;;;;9.98;4.25;;;22.00;99.90;;;;;;5021038;28;20350;-79
2022/05/26 09:43:49;;;;;;;7.07;2.83;;;22.10;99.90;;;;;;5006033;28;20722;-80
2022/05/26 09:46:17;;;;;;;10.73;3.28;;;22.40;99.90;;;;;;5006420;28;20196;-79
2022/05/26 09:48:46;;;;;;;9.38;3.33;;;22.70;99.90;;;;;;5007337;28;20204;-81
2022/05/26 09:51:23;;;;;;;11.05;3.83;;;22.90;99.90;;;;;;5017199;28;20614;-79
2022/05/26 09:53:51;;;;;;;10.70;3.30;;;23.30;99.90;;;;;;5026086;28;20190;-82
2022/05/26 09:56:29;;;;;;;13.25;3.53;;;23.40;99.90;;;;;;5024851;28;20694;-80
2022/05/26 09:58:56;;;;;;;10.68;3.20;;;23.60;99.90;;;;;;5009497;28;20222;-80
2022/05/26 10:01:41;;;;;;;13.13;4.15;;;23.80;99.90;;;;;;5005662;28;20214;-81
2022/05/26 10:04:21;;;;;;;10.20;3.42;;;24.20;99.90;;;;;;5005475;28;20218;-82
2022/05/26 10:06:58;;;;;;;11.68;3.08;;;24.30;99.90;;;;;;5005877;28;20188;-81
2022/05/26 10:09:33;;;;;;;9.48;3.13;;;24.50;99.90;;;;;;5005745;28;20225;-80
2022/05/26 10:12:07;;;;;;;11.50;3.13;;;24.60;99.90;;;;;;5008230;28;20191;-83
2022/05/26 10:14:50;;;;;;;11.60;3.20;;;24.60;99.90;;;;;;5009248;28;20293;-81
2022/05/26 10:17:25;;;;;;;13.88;3.78;;;24.70;99.90;;;;;;5007458;28;20202;-81
2022/05/26 10:20:12;;;;;;;8.98;3.25;;;24.60;99.90;;;;;;5005835;28;20269;-80
2022/05/26 10:22:47;;;;;;;13.35;3.20;;;24.80;99.90;;;;;;5020418;28;20237;-81
2022/05/26 10:25:25;;;;;;;11.20;3.10;;;24.70;99.90;;;;;;5027686;28;20250;-84
2022/05/26 10:28:28;;;;;;;8.70;2.78;;;24.50;99.90;;;;;;5028688;28;20554;-81
2022/05/26 10:31:04;;;;;;;11.93;3.22;;;24.30;99.90;;;;;;5006138;28;20186;-81
2022/05/26 10:33:45;;;;;;;15.02;3.45;;;24.00;99.90;;;;;;5008836;28;20206;-79
2022/05/26 10:36:22;;;;;;;12.20;3.38;;;23.60;99.90;;;;;;5007330;28;20631;-78
2022/05/26 10:39:07;;;;;;;15.55;4.07;;;23.40;99.90;;;;;;5006547;28;20314;-80
2022/05/26 10:41:37;;;;;;;14.77;4.05;;;23.30;99.90;;;;;;5006306;28;20737;-81
2022/05/26 10:44:13;;;;;;;12.77;3.33;;;23.20;99.90;;;;;;5006965;28;20227;-80
2022/05/26 10:46:44;;;;;;;11.20;3.25;;;23.10;99.90;;;;;;5004841;28;20207;-82
2022/05/26 10:49:19;;;;;;;12.07;3.80;;;23.10;99.90;;;;;;5006605;28;20230;-79
2022/05/26 10:51:51;;;;;;;11.90;3.60;;;23.00;99.90;;;;;;5007582;28;20207;-80
2022/05/26 10:54:26;;;;;;;10.70;3.20;;;23.10;99.90;;;;;;5055359;22;20245;-80
2022/05/26 10:56:59;;;;;;;10.30;3.45;;;23.10;99.90;;;;;;5046825;28;20280;-82
2022/05/26 10:59:29;;;;;;;11.70;3.75;;;23.30;99.90;;;;;;5046139;28;20259;-80
2022/05/26 11:02:00;;;;;;;12.48;3.63;;;23.40;99.90;;;;;;5046027;28;20209;-79
2022/05/26 11:04:34;;;;;;;14.15;4.15;;;23.20;99.90;;;;;;5045389;28;20229;-83
2022/05/26 11:07:06;;;;;;;12.85;3.63;;;23.40;99.90;;;;;;5047010;28;20202;-82
2022/05/26 11:09:38;;;;;;;10.23;3.30;;;23.20;99.90;;;;;;5047032;28;20316;-82
2022/05/26 11:12:10;;;;;;;13.05;3.72;;;23.10;99.90;;;;;;5046145;28;20216;-81
2022/05/26 11:17:44;;;;;;;13.35;4.22;;;22.70;99.90;;;;;;5045339;28;20197;-81
2022/05/26 11:20:19;;;;;;;12.63;3.72;;;22.60;99.90;;;;;;5045043;28;20944;-82
2022/05/26 11:22:46;;;;;;;13.10;3.17;;;22.50;99.90;;;;;;5025422;28;20230;-83
2022/05/26 11:25:17;;;;;;;13.13;3.50;;;22.60;99.90;;;;;;5027045;28;20206;-83
2022/05/26 11:27:48;;;;;;;11.93;3.58;;;22.90;99.90;;;;;;5025223;28;20213;-80
2022/05/26 11:36:08;;;;;;;10.82;3.28;;;23.10;99.90;;;;;;5029591;28;20252;-81
2022/05/26 11:38:41;;;;;;;13.57;3.80;;;23.00;99.90;;;;;;5030411;28;20182;-80
2022/05/26 11:41:12;;;;;;;8.65;2.65;;;23.00;99.90;;;;;;5031237;28;20209;-79
2022/05/26 11:43:45;;;;;;;8.77;3.28;;;23.10;99.90;;;;;;5030636;28;20301;-84
2022/05/26 11:46:53;;;;;;;9.25;2.90;;;23.30;99.90;;;;;;5057985;28;20209;-81
2022/05/26 11:49:58;;;;;;;11.23;3.13;;;23.10;99.90;;;;;;5066027;28;20237;-80
2022/05/26 11:52:27;;;;;;;10.77;3.65;;;22.80;99.90;;;;;;5013792;28;20193;-80
2022/05/26 11:55:10;;;;;;;9.38;3.42;;;22.60;99.90;;;;;;5062103;28;20181;-80
2022/05/26 11:57:49;;;;;;;14.18;4.15;;;22.60;99.90;;;;;;5054008;28;20203;-79
2022/05/26 12:00:23;;;;;;;11.90;3.72;;;22.40;99.90;;;;;;5054295;28;20577;-80
2022/05/26 12:02:52;;;;;;;14.82;3.97;;;22.40;99.90;;;;;;5043065;28;20210;-80
2022/05/26 12:05:45;;;;;;;11.10;4.00;;;22.50;99.90;;;;;;5045282;28;20237;-79
2022/05/26 12:08:35;;;;;;;13.60;3.97;;;22.50;99.90;;;;;;5043489;28;20275;-79
2022/05/26 12:11:06;;;;;;;12.13;3.50;;;22.20;99.90;;;;;;5044304;28;20202;-78
2022/05/26 12:13:41;;;;;;;12.02;3.95;;;22.10;99.90;;;;;;5041690;28;20194;-80
2022/05/26 12:16:27;;;;;;;10.75;3.72;;;22.30;99.90;;;;;;5044879;28;20219;-79
2022/05/26 12:18:57;;;;;;;11.90;3.47;;;22.20;99.90;;;;;;5044737;28;20206;-80
2022/05/26 12:21:47;;;;;;;8.52;3.13;;;21.90;99.90;;;;;;5045059;28;20642;-78
2022/05/26 12:24:49;;;;;;;10.90;3.30;;;22.00;99.90;;;;;;5045782;28;20398;-80
2022/05/26 12:28:00;;;;;;;16.38;3.65;;;22.30;99.90;;;;;;5038148;28;20264;-79
2022/05/26 12:31:03;;;;;;;15.63;4.30;;;22.40;99.90;;;;;;5015850;28;20202;-76
2022/05/26 12:33:56;;;;;;;11.80;3.53;;;22.20;99.90;;;;;;5046899;28;20190;-79
2022/05/26 12:36:33;;;;;;;14.85;3.70;;;22.00;99.90;;;;;;5044380;28;20214;-79
2022/05/26 12:39:18;;;;;;;16.00;3.50;;;21.90;99.90;;;;;;5049695;22;20233;-79
2022/05/26 12:41:52;;;;;;;14.85;4.20;;;21.80;99.90;;;;;;5048139;28;20196;-83
2022/05/26 12:44:38;;;;;;;13.20;3.47;;;21.70;99.90;;;;;;5039512;28;20218;-83
2022/05/26 12:47:19;;;;;;;13.88;4.28;;;21.60;99.90;;;;;;5043432;28;20208;-83
2022/05/26 12:50:02;;;;;;;13.88;4.75;;;21.50;99.90;;;;;;5039825;28;20585;-80
2022/05/26 12:52:34;;;;;;;14.18;3.55;;;21.50;99.90;;;;;;5044783;28;20521;-79
2022/05/26 12:55:20;;;;;;;13.45;4.13;;;21.70;99.90;;;;;;5042735;28;20215;-83
2022/05/26 12:57:52;;;;;;;14.75;3.72;;;21.70;99.90;;;;;;5045883;28;20217;-83
2022/05/26 13:00:34;;;;;;;15.02;4.45;;;21.70;99.90;;;;;;5045205;28;20201;-79
2022/05/26 13:03:05;;;;;;;15.73;4.45;;;21.70;99.90;;;;;;5044161;28;20217;-83
2022/05/26 13:05:35;;;;;;;13.93;4.20;;;21.70;99.90;;;;;;5047640;28;20849;-83
2022/05/26 13:08:04;;;;;;;12.93;4.18;;;21.80;99.90;;;;;;5046025;28;20227;-83
2022/05/26 13:10:35;;;;;;;10.55;3.80;;;21.70;99.90;;;;;;5047984;28;20210;-87
2022/05/26 13:13:05;;;;;;;13.80;3.90;;;21.70;99.90;;;;;;5046088;28;20317;-83
2022/05/26 13:15:32;;;;;;;13.07;3.83;;;21.60;99.90;;;;;;5047677;28;20872;-82
2022/05/26 13:17:58;;;;;;;19.67;4.30;;;21.60;99.90;;;;;;5046246;28;20214;-80
2022/05/26 13:20:34;;;;;;;12.75;4.20;;;21.50;99.90;;;;;;5044844;28;20206;-84
2022/05/26 13:23:02;;;;;;;15.35;4.25;;;21.50;99.90;;;;;;5032981;28;20248;-81
2022/05/26 13:25:31;;;;;;;16.98;3.97;;;21.40;99.90;;;;;;5035205;28;20202;-83
2022/05/26 13:28:01;;;;;;;15.60;3.65;;;21.50;99.90;;;;;;5032476;28;20217;-85
2022/05/26 13:33:24;;;;;;;14.98;3.78;;;21.70;99.90;;;;;;5047739;28;20232;-81
2022/05/26 13:35:56;;;;;;;12.35;3.70;;;21.60;99.90;;;;;;5050538;28;20221;-84
2022/05/26 13:38:29;;;;;;;10.50;3.53;;;21.50;99.90;;;;;;5036531;28;20238;-82
2022/05/26 13:40:57;;;;;;;12.23;3.90;;;21.50;99.90;;;;;;5027332;28;20359;-83
2022/05/26 13:43:24;;;;;;;10.95;3.30;;;21.60;99.90;;;;;;5028445;28;20299;-81